createdAt,value
2017-09-28T00:00:39.948Z,964.45
2017-09-28T00:01:39.917Z,964.43
2017-09-28T00:02:39.939Z,964.44
2017-09-28T00:03:39.963Z,964.4
2017-09-28T00:04:39.999Z,964.42
2017-09-28T00:05:40.006Z,964.38
2017-09-28T00:06:40.031Z,964.36
2017-09-28T00:07:40.052Z,964.4
2017-09-28T00:08:40.079Z,964.36
2017-09-28T00:09:40.098Z,964.33
2017-09-28T00:10:40.121Z,964.33
2017-09-28T00:11:40.154Z,964.34
2017-09-28T00:12:46.431Z,964.32
2017-09-28T00:13:40.188Z,964.34
2017-09-28T00:14:40.210Z,964.35
2017-09-28T00:15:40.317Z,964.36
2017-09-28T00:16:40.256Z,964.33
2017-09-28T00:17:40.279Z,964.31
2017-09-28T00:18:40.301Z,964.33
2017-09-28T00:19:40.324Z,964.33
2017-09-28T00:20:40.344Z,964.31
2017-09-28T00:21:40.368Z,964.36
2017-09-28T00:22:40.390Z,964.31
2017-09-28T00:23:40.413Z,964.31
2017-09-28T00:24:40.434Z,964.32
2017-09-28T00:25:40.457Z,964.28
2017-09-28T00:26:40.480Z,964.3
2017-09-28T00:27:40.502Z,964.28
2017-09-28T00:28:40.524Z,964.23
2017-09-28T00:29:40.556Z,964.22
2017-09-28T00:30:40.568Z,964.22
2017-09-28T00:31:40.591Z,964.23
2017-09-28T00:32:40.618Z,964.24
2017-09-28T00:33:40.637Z,964.19
2017-09-28T00:34:40.657Z,964.21
2017-09-28T00:35:40.679Z,964.21
2017-09-28T00:36:40.703Z,964.23
2017-09-28T00:37:40.732Z,964.24
2017-09-28T00:38:40.748Z,964.25
2017-09-28T00:39:40.769Z,964.23
2017-09-28T00:40:40.792Z,964.28
2017-09-28T00:41:40.815Z,964.28
2017-09-28T00:42:40.836Z,964.26
2017-09-28T00:43:40.861Z,964.28
2017-09-28T00:44:40.882Z,964.26
2017-09-28T00:45:40.903Z,964.29
2017-09-28T00:46:40.926Z,964.31
2017-09-28T00:47:40.981Z,964.3
2017-09-28T00:48:40.979Z,964.33
2017-09-28T00:49:41.015Z,964.32
2017-09-28T00:50:41.013Z,964.26
2017-09-28T00:51:41.038Z,964.27
2017-09-28T00:52:41.061Z,964.27
2017-09-28T00:53:41.084Z,964.23
2017-09-28T00:54:41.102Z,964.26
2017-09-28T00:55:41.127Z,964.2
2017-09-28T00:56:41.148Z,964.22
2017-09-28T00:57:41.171Z,964.23
2017-09-28T00:58:41.192Z,964.25
2017-09-28T00:59:41.219Z,964.22
2017-09-28T01:00:41.236Z,964.25
2017-09-28T01:01:41.261Z,964.23
2017-09-28T01:02:41.280Z,964.23
2017-09-28T01:03:41.302Z,964.22
2017-09-28T01:04:41.323Z,964.26
2017-09-28T01:05:41.345Z,964.25
2017-09-28T01:06:41.369Z,964.25
2017-09-28T01:07:41.390Z,964.24
2017-09-28T01:08:41.414Z,964.27
2017-09-28T01:09:41.436Z,964.27
2017-09-28T01:10:41.457Z,964.24
2017-09-28T01:11:41.480Z,964.24
2017-09-28T01:12:41.501Z,964.23
2017-09-28T01:13:41.524Z,964.22
2017-09-28T01:14:41.551Z,964.24
2017-09-28T01:15:41.569Z,964.25
2017-09-28T01:16:41.590Z,964.25
2017-09-28T01:17:41.612Z,964.27
2017-09-28T01:18:41.633Z,964.31
2017-09-28T01:19:41.656Z,964.29
2017-09-28T01:20:41.679Z,964.29
2017-09-28T01:21:41.700Z,964.3
2017-09-28T01:22:41.721Z,964.26
2017-09-28T01:23:41.743Z,964.24
2017-09-28T01:24:41.767Z,964.25
2017-09-28T01:25:41.788Z,964.25
2017-09-28T01:26:41.810Z,964.25
2017-09-28T01:27:41.833Z,964.25
2017-09-28T01:28:41.854Z,964.26
2017-09-28T01:29:41.875Z,964.25
2017-09-28T01:30:41.896Z,964.22
2017-09-28T01:31:41.921Z,964.25
2017-09-28T01:32:41.972Z,964.22
2017-09-28T01:33:41.965Z,964.22
2017-09-28T01:34:42.005Z,964.21
2017-09-28T01:35:42.011Z,964.18
2017-09-28T01:36:42.028Z,964.18
2017-09-28T01:37:42.050Z,964.23
2017-09-28T01:38:42.087Z,964.19
2017-09-28T01:39:42.098Z,964.27
2017-09-28T01:40:42.116Z,964.26
2017-09-28T01:41:42.141Z,964.27
2017-09-28T01:42:42.163Z,964.25
2017-09-28T01:43:42.181Z,964.29
2017-09-28T01:44:42.204Z,964.28
2017-09-28T01:45:42.226Z,964.28
2017-09-28T01:46:42.250Z,964.25
2017-09-28T01:47:42.270Z,964.29
2017-09-28T01:48:42.291Z,964.27
2017-09-28T01:49:42.312Z,964.29
2017-09-28T01:50:42.334Z,964.3
2017-09-28T01:51:42.354Z,964.28
2017-09-28T01:52:42.376Z,964.28
2017-09-28T01:53:42.400Z,964.27
2017-09-28T01:54:42.425Z,964.31
2017-09-28T01:55:42.442Z,964.27
2017-09-28T01:56:42.467Z,964.26
2017-09-28T01:57:42.485Z,964.26
2017-09-28T01:58:42.509Z,964.25
2017-09-28T01:59:42.528Z,964.25
2017-09-28T02:00:42.552Z,964.24
2017-09-28T02:01:42.578Z,964.22
2017-09-28T02:02:42.596Z,964.19
2017-09-28T02:03:42.614Z,964.19
2017-09-28T02:04:42.636Z,964.16
2017-09-28T02:05:42.657Z,964.13
2017-09-28T02:06:42.729Z,964.17
2017-09-28T02:07:42.699Z,964.15
2017-09-28T02:08:42.728Z,964.15
2017-09-28T02:09:42.745Z,964.16
2017-09-28T02:10:42.774Z,964.19
2017-09-28T02:11:42.795Z,964.13
2017-09-28T02:12:42.814Z,964.19
2017-09-28T02:13:42.832Z,964.18
2017-09-28T02:14:42.861Z,964.17
2017-09-28T02:15:42.880Z,964.19
2017-09-28T02:16:42.898Z,964.23
2017-09-28T02:17:42.916Z,964.18
2017-09-28T02:18:42.940Z,964.16
2017-09-28T02:19:42.967Z,964.17
2017-09-28T02:20:42.983Z,964.16
2017-09-28T02:21:43.003Z,964.16
2017-09-28T02:22:43.024Z,964.15
2017-09-28T02:23:43.044Z,964.14
2017-09-28T02:24:43.070Z,964.16
2017-09-28T02:25:43.087Z,964.13
2017-09-28T02:26:43.113Z,964.14
2017-09-28T02:27:43.132Z,964.13
2017-09-28T02:28:43.153Z,964.09
2017-09-28T02:29:43.176Z,964.06
2017-09-28T02:30:43.195Z,964.08
2017-09-28T02:31:43.217Z,964.06
2017-09-28T02:32:43.250Z,964.08
2017-09-28T02:33:43.261Z,964.05
2017-09-28T02:34:43.283Z,964.06
2017-09-28T02:35:43.311Z,964.05
2017-09-28T02:36:43.329Z,964.09
2017-09-28T02:37:43.347Z,964.1
2017-09-28T02:38:43.369Z,964.08
2017-09-28T02:39:43.389Z,964.11
2017-09-28T02:40:43.414Z,964.14
2017-09-28T02:41:43.434Z,964.12
2017-09-28T02:42:43.455Z,964.14
2017-09-28T02:43:43.480Z,964.17
2017-09-28T02:44:43.498Z,964.16
2017-09-28T02:45:43.522Z,964.16
2017-09-28T02:46:43.541Z,964.19
2017-09-28T02:47:43.572Z,964.16
2017-09-28T02:48:43.585Z,964.23
2017-09-28T02:49:43.608Z,964.24
2017-09-28T02:50:43.629Z,964.23
2017-09-28T02:51:43.650Z,964.23
2017-09-28T02:52:43.669Z,964.26
2017-09-28T02:53:43.690Z,964.25
2017-09-28T02:54:43.719Z,964.26
2017-09-28T02:55:43.735Z,964.27
2017-09-28T02:56:43.808Z,964.26
2017-09-28T02:57:43.777Z,964.29
2017-09-28T02:58:43.801Z,964.31
2017-09-28T02:59:43.820Z,964.29
2017-09-28T03:00:43.842Z,964.33
2017-09-28T03:01:43.863Z,964.32
2017-09-28T03:02:43.886Z,964.33
2017-09-28T03:03:43.906Z,964.37
2017-09-28T03:04:43.926Z,964.33
2017-09-28T03:05:43.949Z,964.36
2017-09-28T03:06:43.978Z,964.34
2017-09-28T03:07:43.992Z,964.38
2017-09-28T03:08:44.016Z,964.36
2017-09-28T03:09:44.035Z,964.38
2017-09-28T03:10:44.074Z,964.36
2017-09-28T03:11:44.079Z,964.32
2017-09-28T03:12:44.102Z,964.33
2017-09-28T03:13:44.122Z,964.35
2017-09-28T03:14:44.143Z,964.34
2017-09-28T03:15:44.164Z,964.3
2017-09-28T03:16:44.186Z,964.32
2017-09-28T03:17:44.206Z,964.28
2017-09-28T03:18:44.231Z,964.25
2017-09-28T03:19:44.250Z,964.27
2017-09-28T03:20:44.271Z,964.31
2017-09-28T03:21:44.295Z,964.32
2017-09-28T03:22:44.323Z,964.32
2017-09-28T03:23:44.337Z,964.35
2017-09-28T03:24:44.359Z,964.38
2017-09-28T03:25:44.379Z,964.41
2017-09-28T03:26:44.401Z,964.4
2017-09-28T03:27:44.422Z,964.46
2017-09-28T03:28:44.446Z,964.49
2017-09-28T03:29:44.465Z,964.51
2017-09-28T03:30:44.494Z,964.5
2017-09-28T03:31:44.509Z,964.53
2017-09-28T03:32:44.530Z,964.53
2017-09-28T03:33:44.552Z,964.54
2017-09-28T03:34:44.572Z,964.58
2017-09-28T03:35:44.595Z,964.57
2017-09-28T03:36:44.620Z,964.61
2017-09-28T03:37:44.635Z,964.61
2017-09-28T03:38:44.657Z,964.63
2017-09-28T03:39:44.678Z,964.57
2017-09-28T03:40:44.699Z,964.59
2017-09-28T03:41:44.720Z,964.58
2017-09-28T03:42:44.742Z,964.57
2017-09-28T03:43:44.764Z,964.55
2017-09-28T03:44:44.783Z,964.56
2017-09-28T03:45:44.805Z,964.57
2017-09-28T03:46:44.828Z,964.61
2017-09-28T03:47:44.851Z,964.58
2017-09-28T03:48:44.870Z,964.61
2017-09-28T03:49:44.890Z,964.62
2017-09-28T03:50:44.911Z,964.66
2017-09-28T03:51:44.934Z,964.63
2017-09-28T03:52:44.955Z,964.64
2017-09-28T03:53:44.976Z,964.62
2017-09-28T03:54:45.007Z,964.62
2017-09-28T03:55:45.017Z,964.6
2017-09-28T03:56:45.039Z,964.63
2017-09-28T03:57:45.064Z,964.6
2017-09-28T03:58:45.080Z,964.64
2017-09-28T03:59:45.101Z,964.65
2017-09-28T04:00:45.130Z,964.62
2017-09-28T04:01:45.143Z,964.7
2017-09-28T04:02:45.164Z,964.69
2017-09-28T04:03:45.184Z,964.69
2017-09-28T04:04:45.208Z,964.7
2017-09-28T04:05:45.228Z,964.72
2017-09-28T04:06:45.249Z,964.74
2017-09-28T04:07:45.272Z,964.73
2017-09-28T04:08:45.290Z,964.75
2017-09-28T04:09:45.312Z,964.69
2017-09-28T04:10:45.332Z,964.69
2017-09-28T04:11:45.369Z,964.72
2017-09-28T04:12:45.375Z,964.72
2017-09-28T04:13:45.395Z,964.71
2017-09-28T04:14:45.415Z,964.7
2017-09-28T04:15:45.437Z,964.75
2017-09-28T04:16:45.458Z,964.73
2017-09-28T04:17:45.479Z,964.72
2017-09-28T04:18:45.503Z,964.76
2017-09-28T04:19:45.520Z,964.72
2017-09-28T04:20:45.592Z,964.74
2017-09-28T04:21:45.563Z,964.74
2017-09-28T04:22:45.585Z,964.75
2017-09-28T04:23:45.605Z,964.73
2017-09-28T04:24:45.625Z,964.75
2017-09-28T04:25:45.647Z,964.77
2017-09-28T04:26:45.669Z,964.8
2017-09-28T04:27:45.691Z,964.76
2017-09-28T04:28:45.710Z,964.77
2017-09-28T04:29:45.741Z,964.76
2017-09-28T04:30:45.756Z,964.78
2017-09-28T04:31:45.773Z,964.76
2017-09-28T04:32:45.793Z,964.76
2017-09-28T04:33:45.814Z,964.74
2017-09-28T04:34:45.838Z,964.74
2017-09-28T04:35:45.857Z,964.7
2017-09-28T04:36:45.879Z,964.73
2017-09-28T04:37:45.900Z,964.74
2017-09-28T04:38:45.921Z,964.71
2017-09-28T04:39:45.942Z,964.72
2017-09-28T04:40:45.963Z,964.74
2017-09-28T04:41:45.984Z,964.71
2017-09-28T04:42:46.005Z,964.74
2017-09-28T04:43:46.026Z,964.76
2017-09-28T04:44:46.047Z,964.77
2017-09-28T04:45:46.068Z,964.74
2017-09-28T04:46:46.088Z,964.79
2017-09-28T04:47:46.110Z,964.79
2017-09-28T04:48:46.147Z,964.79
2017-09-28T04:49:46.155Z,964.85
2017-09-28T04:50:46.173Z,964.84
2017-09-28T04:51:46.194Z,964.84
2017-09-28T04:52:46.219Z,964.8
2017-09-28T04:53:46.237Z,964.77
2017-09-28T04:54:46.313Z,964.79
2017-09-28T04:55:46.280Z,964.77
2017-09-28T04:56:46.301Z,964.77
2017-09-28T04:57:46.323Z,964.78
2017-09-28T04:58:46.345Z,964.79
2017-09-28T04:59:46.367Z,964.85
2017-09-28T05:00:46.386Z,964.8
2017-09-28T05:01:46.407Z,964.83
2017-09-28T05:02:46.441Z,964.83
2017-09-28T05:03:46.450Z,964.85
2017-09-28T05:04:46.480Z,964.87
2017-09-28T05:05:46.491Z,964.87
2017-09-28T05:06:46.512Z,964.89
2017-09-28T05:07:46.538Z,964.86
2017-09-28T05:08:46.553Z,964.89
2017-09-28T05:09:46.574Z,964.89
2017-09-28T05:10:46.597Z,964.91
2017-09-28T05:11:46.619Z,964.94
2017-09-28T05:12:46.656Z,964.95
2017-09-28T05:13:46.662Z,964.95
2017-09-28T05:14:46.683Z,964.95
2017-09-28T05:15:46.702Z,964.97
2017-09-28T05:16:46.723Z,964.96
2017-09-28T05:17:46.746Z,964.99
2017-09-28T05:18:46.765Z,965.02
2017-09-28T05:19:46.785Z,965.04
2017-09-28T05:20:46.812Z,965.02
2017-09-28T05:21:46.828Z,965.01
2017-09-28T05:22:46.850Z,965.04
2017-09-28T05:23:46.871Z,965.02
2017-09-28T05:24:46.893Z,965.02
2017-09-28T05:25:46.914Z,965.09
2017-09-28T05:26:46.936Z,965.08
2017-09-28T05:27:46.963Z,965.09
2017-09-28T05:28:47.028Z,965.08
2017-09-28T05:29:46.999Z,965.08
2017-09-28T05:30:47.020Z,965.11
2017-09-28T05:31:47.043Z,965.14
2017-09-28T05:32:47.063Z,965.15
2017-09-28T05:33:47.085Z,965.18
2017-09-28T05:34:47.105Z,965.16
2017-09-28T05:35:47.127Z,965.2
2017-09-28T05:36:47.148Z,965.17
2017-09-28T05:37:47.173Z,965.22
2017-09-28T05:38:47.192Z,965.25
2017-09-28T05:39:47.214Z,965.27
2017-09-28T05:40:47.235Z,965.25
2017-09-28T05:41:47.255Z,965.26
2017-09-28T05:42:47.276Z,965.3
2017-09-28T05:43:47.304Z,965.28
2017-09-28T05:44:47.318Z,965.25
2017-09-28T05:45:47.352Z,965.26
2017-09-28T05:46:47.362Z,965.26
2017-09-28T05:47:47.436Z,965.27
2017-09-28T05:48:47.406Z,965.23
2017-09-28T05:49:47.426Z,965.28
2017-09-28T05:50:47.453Z,965.23
2017-09-28T05:51:47.481Z,965.24
2017-09-28T05:52:47.492Z,965.21
2017-09-28T05:53:47.513Z,965.29
2017-09-28T05:54:47.537Z,965.29
2017-09-28T05:55:47.558Z,965.35
2017-09-28T05:56:47.578Z,965.32
2017-09-28T05:57:47.600Z,965.36
2017-09-28T05:58:47.623Z,965.39
2017-09-28T05:59:47.645Z,965.39
2017-09-28T06:00:47.666Z,965.41
2017-09-28T06:01:47.691Z,965.42
2017-09-28T06:02:47.712Z,965.43
2017-09-28T06:03:47.736Z,965.45
2017-09-28T06:04:47.754Z,965.44
2017-09-28T06:05:47.777Z,965.44
2017-09-28T06:06:47.801Z,965.51
2017-09-28T06:07:47.821Z,965.49
2017-09-28T06:08:47.844Z,965.49
2017-09-28T06:09:47.866Z,965.53
2017-09-28T06:10:47.888Z,965.53
2017-09-28T06:11:47.911Z,965.52
2017-09-28T06:12:47.931Z,965.53
2017-09-28T06:13:47.954Z,965.47
2017-09-28T06:14:47.977Z,965.51
2017-09-28T06:15:48.001Z,965.51
2017-09-28T06:16:48.026Z,965.52
2017-09-28T06:17:48.045Z,965.5
2017-09-28T06:18:48.066Z,965.56
2017-09-28T06:19:48.090Z,965.59
2017-09-28T06:20:48.118Z,965.54
2017-09-28T06:21:48.133Z,965.54
2017-09-28T06:22:48.207Z,965.55
2017-09-28T06:23:48.198Z,965.51
2017-09-28T06:24:48.234Z,965.55
2017-09-28T06:25:48.232Z,965.54
2017-09-28T06:26:48.258Z,965.54
2017-09-28T06:27:48.280Z,965.56
2017-09-28T06:28:48.297Z,965.54
2017-09-28T06:29:48.316Z,965.6
2017-09-28T06:30:48.341Z,965.58
2017-09-28T06:31:48.363Z,965.54
2017-09-28T06:32:48.384Z,965.6
2017-09-28T06:33:48.406Z,965.6
2017-09-28T06:34:48.434Z,965.56
2017-09-28T06:35:48.508Z,965.57
2017-09-28T06:36:48.477Z,965.61
2017-09-28T06:37:48.502Z,965.56
2017-09-28T06:38:48.522Z,965.57
2017-09-28T06:39:48.543Z,965.62
2017-09-28T06:40:48.566Z,965.66
2017-09-28T06:41:48.595Z,965.62
2017-09-28T06:42:48.617Z,965.67
2017-09-28T06:43:48.638Z,965.7
2017-09-28T06:44:48.663Z,965.68
2017-09-28T06:45:48.683Z,965.68
2017-09-28T06:46:48.716Z,965.69
2017-09-28T06:47:48.730Z,965.71
2017-09-28T06:48:48.751Z,965.69
2017-09-28T06:49:48.776Z,965.72
2017-09-28T06:50:48.854Z,965.76
2017-09-28T06:51:48.828Z,965.78
2017-09-28T06:52:48.845Z,965.73
2017-09-28T06:53:48.867Z,965.8
2017-09-28T06:54:48.896Z,965.79
2017-09-28T06:55:48.920Z,965.77
2017-09-28T06:56:48.938Z,965.77
2017-09-28T06:57:48.961Z,965.77
2017-09-28T06:58:48.988Z,965.81
2017-09-28T06:59:49.006Z,965.77
2017-09-28T07:00:49.030Z,965.76
2017-09-28T07:01:49.061Z,965.75
2017-09-28T07:02:49.080Z,965.75
2017-09-28T07:03:49.107Z,965.82
2017-09-28T07:04:49.126Z,965.81
2017-09-28T07:05:49.148Z,965.79
2017-09-28T07:06:49.171Z,965.82
2017-09-28T07:07:49.201Z,965.81
2017-09-28T07:08:49.220Z,965.82
2017-09-28T07:09:49.293Z,965.87
2017-09-28T07:10:49.269Z,965.86
2017-09-28T07:11:49.290Z,965.84
2017-09-28T07:12:49.325Z,965.87
2017-09-28T07:13:49.338Z,965.83
2017-09-28T07:14:49.362Z,965.89
2017-09-28T07:15:49.386Z,965.88
2017-09-28T07:16:49.413Z,965.9
2017-09-28T07:17:49.435Z,965.85
2017-09-28T07:18:49.458Z,965.83
2017-09-28T07:19:49.526Z,965.84
2017-09-28T07:20:49.505Z,965.83
2017-09-28T07:21:49.529Z,965.84
2017-09-28T07:22:49.557Z,965.84
2017-09-28T07:23:49.601Z,965.81
2017-09-28T07:24:49.603Z,965.82
2017-09-28T07:25:49.629Z,965.82
2017-09-28T07:26:49.778Z,965.83
2017-09-28T07:27:49.682Z,965.81
2017-09-28T07:28:49.750Z,965.8
2017-09-28T07:29:49.724Z,965.79
2017-09-28T07:30:49.747Z,965.82
2017-09-28T07:31:49.774Z,965.8
2017-09-28T07:32:49.795Z,965.82
2017-09-28T07:33:50.030Z,965.8
2017-09-28T07:34:49.864Z,965.85
2017-09-28T07:35:49.868Z,965.85
2017-09-28T07:36:49.896Z,965.82
2017-09-28T07:37:49.917Z,965.85
2017-09-28T07:38:49.943Z,965.9
2017-09-28T07:39:49.970Z,965.9
2017-09-28T07:40:50.875Z,965.87
2017-09-28T07:41:50.014Z,965.87
2017-09-28T07:42:50.043Z,965.88
2017-09-28T07:43:50.063Z,965.88
2017-09-28T07:44:50.090Z,965.89
2017-09-28T07:45:50.111Z,965.88
2017-09-28T07:46:50.289Z,965.92
2017-09-28T07:47:50.160Z,965.9
2017-09-28T07:48:50.186Z,965.91
2017-09-28T07:49:50.208Z,965.92
2017-09-28T07:50:50.233Z,965.9
2017-09-28T07:51:50.258Z,965.89
2017-09-28T07:52:50.283Z,965.91
2017-09-28T07:53:50.307Z,965.9
2017-09-28T07:54:50.333Z,965.89
2017-09-28T07:55:50.356Z,965.91
2017-09-28T07:56:50.378Z,965.91
2017-09-28T07:57:50.413Z,965.89
2017-09-28T07:58:50.427Z,965.91
2017-09-28T07:59:50.452Z,965.92
2017-09-28T08:00:50.482Z,965.93
2017-09-28T08:01:50.503Z,965.88
2017-09-28T08:02:50.540Z,965.9
2017-09-28T08:03:50.548Z,965.93
2017-09-28T08:04:50.572Z,965.91
2017-09-28T08:05:50.598Z,965.94
2017-09-28T08:06:50.622Z,965.95
2017-09-28T08:07:50.648Z,965.92
2017-09-28T08:08:50.671Z,965.92
2017-09-28T08:09:50.697Z,965.94
2017-09-28T08:10:50.724Z,965.96
2017-09-28T08:11:50.743Z,965.93
2017-09-28T08:12:50.771Z,965.94
2017-09-28T08:13:50.794Z,965.96
2017-09-28T08:14:50.820Z,965.93
2017-09-28T08:15:50.846Z,965.98
2017-09-28T08:16:50.870Z,965.92
2017-09-28T08:17:50.895Z,965.92
2017-09-28T08:18:50.920Z,965.96
2017-09-28T08:19:51.097Z,965.95
2017-09-28T08:20:51.046Z,965.93
2017-09-28T08:21:50.994Z,965.98
2017-09-28T08:22:51.015Z,965.99
2017-09-28T08:23:51.043Z,965.97
2017-09-28T08:24:51.071Z,966
2017-09-28T08:25:51.092Z,966.02
2017-09-28T08:26:51.114Z,966.03
2017-09-28T08:27:51.145Z,966.02
2017-09-28T08:28:51.166Z,965.99
2017-09-28T08:29:51.191Z,965.97
2017-09-28T08:30:51.217Z,966
2017-09-28T08:31:51.241Z,966.01
2017-09-28T08:32:51.268Z,965.99
2017-09-28T08:33:51.294Z,966.01
2017-09-28T08:34:51.313Z,966.01
2017-09-28T08:35:51.338Z,966.01
2017-09-28T08:36:51.364Z,966
2017-09-28T08:37:51.439Z,966.01
2017-09-28T08:38:51.412Z,966
2017-09-28T08:39:51.489Z,965.96
2017-09-28T08:40:51.467Z,966.01
2017-09-28T08:41:51.494Z,966
2017-09-28T08:42:51.518Z,966
2017-09-28T08:43:51.538Z,966.01
2017-09-28T08:44:51.564Z,966.04
2017-09-28T08:45:51.589Z,966.02
2017-09-28T08:46:51.613Z,966.06
2017-09-28T08:47:51.639Z,966.02
2017-09-28T08:48:51.663Z,966.01
2017-09-28T08:49:51.698Z,965.99
2017-09-28T08:50:51.714Z,966.01
2017-09-28T08:51:51.746Z,966.04
2017-09-28T08:52:51.815Z,966.02
2017-09-28T08:53:51.793Z,966.01
2017-09-28T08:54:51.818Z,966.02
2017-09-28T08:55:51.844Z,965.99
2017-09-28T08:56:51.867Z,965.99
2017-09-28T08:57:51.914Z,965.97
2017-09-28T08:58:51.917Z,965.99
2017-09-28T08:59:51.944Z,965.99
2017-09-28T09:00:51.970Z,966
2017-09-28T09:01:52.006Z,965.99
2017-09-28T09:02:52.020Z,966
2017-09-28T09:03:52.046Z,965.98
2017-09-28T09:04:52.076Z,965.98
2017-09-28T09:05:52.106Z,966.02
2017-09-28T09:06:52.124Z,965.98
2017-09-28T09:07:52.200Z,966.04
2017-09-28T09:08:52.179Z,966.07
2017-09-28T09:09:52.200Z,966.07
2017-09-28T09:10:52.226Z,966.09
2017-09-28T09:11:52.250Z,966.1
2017-09-28T09:12:52.279Z,966.08
2017-09-28T09:13:52.306Z,966.06
2017-09-28T09:14:52.333Z,966.07
2017-09-28T09:15:52.357Z,966.1
2017-09-28T09:16:52.383Z,966.08
2017-09-28T09:17:52.406Z,966.06
2017-09-28T09:18:52.431Z,966.1
2017-09-28T09:19:52.457Z,966.07
2017-09-28T09:20:52.482Z,966.09
2017-09-28T09:21:52.514Z,966.06
2017-09-28T09:22:52.586Z,966.07
2017-09-28T09:23:52.564Z,966.04
2017-09-28T09:24:52.589Z,966.04
2017-09-28T09:25:52.615Z,966.07
2017-09-28T09:26:52.640Z,966.08
2017-09-28T09:27:52.667Z,966.09
2017-09-28T09:28:52.692Z,966.08
2017-09-28T09:29:52.718Z,966.08
2017-09-28T09:30:52.754Z,966.05
2017-09-28T09:31:52.772Z,966.03
2017-09-28T09:32:52.799Z,966.07
2017-09-28T09:33:52.826Z,966.05
2017-09-28T09:34:52.851Z,966.06
2017-09-28T09:35:52.876Z,965.99
2017-09-28T09:36:52.905Z,966.01
2017-09-28T09:37:52.930Z,966.02
2017-09-28T09:38:52.958Z,966.01
2017-09-28T09:39:53.034Z,966.01
2017-09-28T09:40:53.011Z,965.99
2017-09-28T09:41:53.040Z,966
2017-09-28T09:42:53.063Z,965.98
2017-09-28T09:43:53.096Z,966.03
2017-09-28T09:44:53.122Z,965.99
2017-09-28T09:45:53.143Z,965.99
2017-09-28T09:46:53.171Z,965.98
2017-09-28T09:47:53.200Z,966.02
2017-09-28T09:48:53.226Z,966.02
2017-09-28T09:49:53.252Z,966.01
2017-09-28T09:50:53.282Z,965.99
2017-09-28T09:51:53.306Z,965.98
2017-09-28T09:52:53.333Z,966.01
2017-09-28T09:53:53.360Z,966.02
2017-09-28T09:54:53.436Z,965.97
2017-09-28T09:55:53.414Z,965.98
2017-09-28T09:56:53.444Z,966.01
2017-09-28T09:57:53.468Z,966.04
2017-09-28T09:58:53.497Z,965.98
2017-09-28T09:59:53.523Z,965.96
2017-09-28T10:00:53.551Z,965.94
2017-09-28T10:01:53.585Z,965.96
2017-09-28T10:02:53.607Z,965.95
2017-09-28T10:03:53.635Z,966
2017-09-28T10:04:53.667Z,965.97
2017-09-28T10:05:53.689Z,966
2017-09-28T10:06:53.718Z,965.99
2017-09-28T10:07:53.749Z,966.03
2017-09-28T10:08:53.775Z,966.01
2017-09-28T10:09:53.807Z,966
2017-09-28T10:10:53.881Z,966.01
2017-09-28T10:11:53.861Z,965.99
2017-09-28T10:12:53.887Z,966.01
2017-09-28T10:13:53.916Z,966.03
2017-09-28T10:14:53.945Z,966.06
2017-09-28T10:15:53.973Z,966.05
2017-09-28T10:16:54.004Z,966.03
2017-09-28T10:17:54.032Z,966.03
2017-09-28T10:18:54.061Z,966.02
2017-09-28T10:19:54.090Z,966.05
2017-09-28T10:20:54.118Z,966.04
2017-09-28T10:21:54.146Z,966.05
2017-09-28T10:22:54.176Z,966.06
2017-09-28T10:23:54.202Z,966.05
2017-09-28T10:24:54.234Z,966.08
2017-09-28T10:25:54.264Z,966.1
2017-09-28T10:26:54.292Z,966.07
2017-09-28T10:27:54.370Z,966.05
2017-09-28T10:28:54.353Z,966.08
2017-09-28T10:29:54.381Z,966.07
2017-09-28T10:30:54.407Z,966.1
2017-09-28T10:31:54.435Z,966.1
2017-09-28T10:32:54.466Z,966.07
2017-09-28T10:33:54.493Z,966.11
2017-09-28T10:34:54.523Z,966.08
2017-09-28T10:35:54.553Z,966.08
2017-09-28T10:36:54.586Z,966.12
2017-09-28T10:37:54.612Z,966.1
2017-09-28T10:38:54.638Z,966.09
2017-09-28T10:39:54.670Z,966.06
2017-09-28T10:40:54.697Z,966.09
2017-09-28T10:41:54.726Z,966.08
2017-09-28T10:42:54.755Z,966.1
2017-09-28T10:43:54.782Z,966.08
2017-09-28T10:44:54.811Z,966.04
2017-09-28T10:45:55.099Z,966.02
2017-09-28T10:46:54.869Z,966.06
2017-09-28T10:47:54.900Z,966.04
2017-09-28T10:48:54.938Z,966.07
2017-09-28T10:49:54.972Z,966.06
2017-09-28T10:50:54.984Z,966.02
2017-09-28T10:51:55.020Z,966.03
2017-09-28T10:52:55.041Z,966.03
2017-09-28T10:53:55.070Z,966.04
2017-09-28T10:54:55.099Z,966.03
2017-09-28T10:55:55.126Z,966.09
2017-09-28T10:56:55.153Z,966.06
2017-09-28T10:57:55.190Z,966.06
2017-09-28T10:58:55.214Z,966.06
2017-09-28T10:59:55.241Z,966.06
2017-09-28T11:00:55.268Z,966.07
2017-09-28T11:01:55.307Z,966.08
2017-09-28T11:02:55.354Z,966.08
2017-09-28T11:03:55.357Z,966.09
2017-09-28T11:04:55.390Z,966.1
2017-09-28T11:05:55.412Z,966.06
2017-09-28T11:06:55.438Z,966.05
2017-09-28T11:07:55.467Z,966.07
2017-09-28T11:08:55.496Z,966.05
2017-09-28T11:09:55.524Z,966.08
2017-09-28T11:10:55.555Z,966.08
2017-09-28T11:11:55.579Z,966.05
2017-09-28T11:12:55.608Z,966.04
2017-09-28T11:13:55.639Z,966.07
2017-09-28T11:14:55.669Z,966.05
2017-09-28T11:15:55.696Z,966.09
2017-09-28T11:16:55.723Z,966.09
2017-09-28T11:17:55.752Z,966.12
2017-09-28T11:18:55.829Z,966.11
2017-09-28T11:19:55.809Z,966.08
2017-09-28T11:20:55.842Z,966.05
2017-09-28T11:21:55.866Z,966.06
2017-09-28T11:22:55.894Z,966.07
2017-09-28T11:23:55.928Z,966.05
2017-09-28T11:24:55.954Z,966.03
2017-09-28T11:25:55.981Z,966.06
2017-09-28T11:26:56.012Z,966.09
2017-09-28T11:27:56.040Z,966.06
2017-09-28T11:28:56.067Z,966.05
2017-09-28T11:29:56.095Z,966.04
2017-09-28T11:30:56.124Z,966.05
2017-09-28T11:31:56.156Z,966.03
2017-09-28T11:32:56.183Z,966.03
2017-09-28T11:33:56.211Z,966.01
2017-09-28T11:34:56.241Z,966
2017-09-28T11:35:56.268Z,965.98
2017-09-28T11:36:56.298Z,965.99
2017-09-28T11:37:56.376Z,966.02
2017-09-28T11:38:56.359Z,966.02
2017-09-28T11:39:56.390Z,965.99
2017-09-28T11:40:56.416Z,966.03
2017-09-28T11:41:56.446Z,966.04
2017-09-28T11:42:56.475Z,966.04
2017-09-28T11:43:56.502Z,966.04
2017-09-28T11:44:56.531Z,966
2017-09-28T11:45:56.561Z,965.99
2017-09-28T11:46:56.607Z,966.03
2017-09-28T11:47:56.620Z,966.03
2017-09-28T11:48:56.649Z,966
2017-09-28T11:49:56.679Z,966
2017-09-28T11:50:56.713Z,965.97
2017-09-28T11:51:56.739Z,965.95
2017-09-28T11:52:56.819Z,965.97
2017-09-28T11:53:56.797Z,965.98
2017-09-28T11:54:56.826Z,965.93
2017-09-28T11:55:56.857Z,965.93
2017-09-28T11:56:56.883Z,965.95
2017-09-28T11:57:56.913Z,965.94
2017-09-28T11:58:56.945Z,965.99
2017-09-28T11:59:56.973Z,965.97
2017-09-28T12:00:57.006Z,966
2017-09-28T12:01:57.034Z,965.99
2017-09-28T12:02:57.090Z,965.98
2017-09-28T12:03:57.093Z,965.99
2017-09-28T12:04:57.128Z,966.01
2017-09-28T12:05:57.153Z,966.01
2017-09-28T12:06:57.184Z,966.04
2017-09-28T12:07:57.263Z,965.97
2017-09-28T12:08:57.243Z,965.98
2017-09-28T12:09:57.333Z,965.99
2017-09-28T12:10:57.304Z,965.97
2017-09-28T12:11:57.343Z,965.96
2017-09-28T12:12:57.364Z,965.98
2017-09-28T12:13:57.393Z,965.96
2017-09-28T12:14:57.428Z,965.96
2017-09-28T12:15:57.454Z,965.98
2017-09-28T12:16:57.485Z,966.03
2017-09-28T12:17:57.516Z,965.98
2017-09-28T12:18:57.546Z,966.01
2017-09-28T12:19:57.576Z,965.94
2017-09-28T12:20:57.608Z,965.93
2017-09-28T12:21:57.641Z,965.93
2017-09-28T12:22:57.720Z,965.96
2017-09-28T12:23:57.700Z,965.95
2017-09-28T12:24:57.731Z,965.97
2017-09-28T12:25:57.763Z,965.98
2017-09-28T12:26:57.792Z,966.05
2017-09-28T12:27:57.822Z,966.03
2017-09-28T12:28:57.859Z,966.04
2017-09-28T12:29:57.887Z,966.01
2017-09-28T12:30:57.916Z,966.06
2017-09-28T12:31:57.949Z,966.08